Time;durP1;ratioP1;P1;durP2;ratioP2;P2;SDS_P1;SDS_P2;PMS_P1;PMS_P2;Temp;Humidity;BMP_temperature;BMP_pressure;BME280_temperature;BME280_humidity;BME280_pressure;Samples;Min_cycle;Max_cycle;Signal;HPM_P1;HPM_P2
2021/09/15 00:02:14;;;;;;;11.82;10.32;;;20.90;99.90;;;;;;5072051;28;20020;-75
2021/09/15 00:04:39;;;;;;;13.93;10.73;;;21.00;99.90;;;;;;5071957;28;20017;-75
2021/09/15 00:07:05;;;;;;;11.50;9.43;;;21.00;99.90;;;;;;5070809;28;20017;-75
2021/09/15 00:09:30;;;;;;;12.05;10.68;;;21.00;99.90;;;;;;5071271;28;20044;-75
2021/09/15 00:11:56;;;;;;;19.05;10.50;;;21.00;99.90;;;;;;5070745;28;20028;-75
2021/09/15 00:14:22;;;;;;;14.73;10.30;;;21.00;99.90;;;;;;5069444;28;20021;-76
2021/09/15 00:16:48;;;;;;;12.60;10.52;;;21.00;99.90;;;;;;5070761;28;20035;-75
2021/09/15 00:19:13;;;;;;;16.17;10.90;;;21.00;99.90;;;;;;5065229;28;20052;-75
2021/09/15 00:21:39;;;;;;;12.43;10.60;;;21.00;99.90;;;;;;5070310;28;20040;-76
2021/09/15 00:24:05;;;;;;;12.27;11.07;;;21.00;99.90;;;;;;5070333;28;20110;-76
2021/09/15 00:26:31;;;;;;;12.23;10.77;;;21.10;99.90;;;;;;5067510;28;20032;-76
2021/09/15 00:28:57;;;;;;;14.82;10.57;;;21.10;99.90;;;;;;5076802;28;20027;-76
2021/09/15 00:31:23;;;;;;;13.38;10.38;;;21.00;99.90;;;;;;5071461;28;20044;-76
2021/09/15 00:33:49;;;;;;;14.73;10.40;;;21.00;99.90;;;;;;5070953;28;20399;-76
2021/09/15 00:36:15;;;;;;;12.05;9.52;;;21.10;99.90;;;;;;5072247;28;20059;-76
2021/09/15 00:38:41;;;;;;;11.73;10.35;;;21.00;99.90;;;;;;5073020;28;20020;-76
2021/09/15 00:41:07;;;;;;;16.65;13.07;;;21.00;99.90;;;;;;5070747;28;20024;-75
2021/09/15 00:43:32;;;;;;;13.73;11.32;;;21.00;99.90;;;;;;5070029;28;20025;-76
2021/09/15 00:45:58;;;;;;;11.68;9.50;;;21.00;99.90;;;;;;5075611;28;20368;-75
2021/09/15 00:48:25;;;;;;;16.42;11.07;;;21.00;99.90;;;;;;5071174;28;20029;-75
2021/09/15 00:50:51;;;;;;;18.58;12.00;;;21.10;99.90;;;;;;5066173;28;20491;-76
2021/09/15 00:53:17;;;;;;;16.60;12.15;;;21.10;99.90;;;;;;5067239;28;20021;-75
2021/09/15 00:55:42;;;;;;;14.75;13.27;;;21.10;99.90;;;;;;5064186;28;20031;-75
2021/09/15 00:58:08;;;;;;;13.40;11.27;;;21.10;99.90;;;;;;5071872;28;20134;-76
2021/09/15 01:00:34;;;;;;;14.48;10.98;;;21.10;99.90;;;;;;5066892;28;20596;-76
2021/09/15 01:02:59;;;;;;;15.88;11.48;;;21.00;99.90;;;;;;5071088;28;20398;-76
2021/09/15 01:05:25;;;;;;;16.90;13.15;;;21.00;99.90;;;;;;5070185;28;20028;-76
2021/09/15 01:07:51;;;;;;;14.15;12.70;;;21.00;99.90;;;;;;5066351;28;20113;-75
2021/09/15 01:10:17;;;;;;;15.50;12.45;;;21.00;99.90;;;;;;5069848;28;20481;-75
2021/09/15 01:12:43;;;;;;;14.80;13.02;;;21.00;99.90;;;;;;5073472;28;20021;-75
2021/09/15 01:15:09;;;;;;;18.08;11.95;;;21.00;99.90;;;;;;5072460;28;20469;-76
2021/09/15 01:17:34;;;;;;;16.33;11.80;;;21.00;99.90;;;;;;5073248;28;20472;-76
2021/09/15 01:20:01;;;;;;;19.80;12.77;;;21.00;99.90;;;;;;5071213;28;20021;-75
2021/09/15 01:22:29;;;;;;;14.35;11.75;;;20.90;99.90;;;;;;5070226;28;20055;-76
2021/09/15 01:24:54;;;;;;;15.07;11.95;;;21.00;99.90;;;;;;5068245;28;20047;-76
2021/09/15 01:27:20;;;;;;;13.95;12.55;;;20.90;99.90;;;;;;5071848;28;20017;-75
2021/09/15 01:29:46;;;;;;;14.38;12.23;;;20.90;99.90;;;;;;5068884;28;20029;-75
2021/09/15 01:32:14;;;;;;;11.57;10.48;;;21.00;99.90;;;;;;5063326;28;20034;-76
2021/09/15 01:34:42;;;;;;;13.25;11.02;;;21.00;99.90;;;;;;5071294;28;20085;-75
2021/09/15 01:37:11;;;;;;;13.77;12.00;;;21.00;99.90;;;;;;5068544;28;20469;-76
2021/09/15 01:39:37;;;;;;;13.43;10.52;;;20.90;99.90;;;;;;5073375;28;20032;-75
2021/09/15 01:42:05;;;;;;;14.77;10.88;;;20.90;99.90;;;;;;5072395;28;20017;-75
2021/09/15 01:44:39;;;;;;;15.05;11.52;;;21.00;99.90;;;;;;5060697;28;20037;-76
2021/09/15 01:47:07;;;;;;;12.57;11.07;;;20.90;99.90;;;;;;5061005;28;20078;-75
2021/09/15 01:49:35;;;;;;;12.10;10.70;;;21.00;99.90;;;;;;5055494;28;20043;-75
2021/09/15 01:52:01;;;;;;;15.65;11.88;;;20.90;99.90;;;;;;5072195;28;20495;-76
2021/09/15 01:54:29;;;;;;;13.32;10.50;;;20.90;99.90;;;;;;5069637;28;20363;-75
2021/09/15 01:56:55;;;;;;;14.13;10.30;;;20.90;99.90;;;;;;5073147;28;20017;-76
2021/09/15 01:59:21;;;;;;;15.68;11.57;;;20.90;99.90;;;;;;5071489;28;20412;-75
2021/09/15 02:01:46;;;;;;;16.63;11.70;;;20.90;99.90;;;;;;5071186;28;20017;-75
2021/09/15 02:04:13;;;;;;;17.58;12.07;;;20.90;99.90;;;;;;5072592;28;20430;-75
2021/09/15 02:06:38;;;;;;;15.52;12.07;;;20.90;99.90;;;;;;5067218;28;20029;-75
2021/09/15 02:09:05;;;;;;;14.25;11.02;;;20.90;99.90;;;;;;5075886;28;20097;-75
2021/09/15 02:11:31;;;;;;;16.70;11.73;;;20.90;99.90;;;;;;5070499;28;20048;-75
2021/09/15 02:13:57;;;;;;;16.13;12.70;;;20.90;99.90;;;;;;5071378;28;20063;-76
2021/09/15 02:16:23;;;;;;;19.40;14.05;;;20.90;99.90;;;;;;5067827;28;20499;-75
2021/09/15 02:18:49;;;;;;;17.60;13.15;;;20.90;99.90;;;;;;5073678;28;20528;-75
2021/09/15 02:21:16;;;;;;;20.17;14.35;;;20.90;99.90;;;;;;5068094;28;20480;-75
2021/09/15 02:23:41;;;;;;;16.50;12.23;;;20.90;99.90;;;;;;5065841;28;20103;-75
2021/09/15 02:26:07;;;;;;;17.73;12.55;;;20.90;99.90;;;;;;5073544;28;20456;-75
2021/09/15 02:28:33;;;;;;;18.73;12.55;;;20.90;99.90;;;;;;5075155;28;20081;-75
2021/09/15 02:30:59;;;;;;;17.23;12.95;;;20.90;99.90;;;;;;5075223;28;20085;-75
2021/09/15 02:33:24;;;;;;;13.68;11.50;;;20.90;99.90;;;;;;5075921;28;20028;-75
2021/09/15 02:35:50;;;;;;;17.33;12.68;;;20.90;99.90;;;;;;5066826;28;20161;-75
2021/09/15 02:38:16;;;;;;;18.02;12.05;;;20.90;99.90;;;;;;5075133;28;20468;-75
2021/09/15 02:40:42;;;;;;;19.17;14.00;;;20.90;99.90;;;;;;5073607;28;20036;-75
2021/09/15 02:43:07;;;;;;;22.00;16.13;;;20.80;99.90;;;;;;5070985;28;20032;-75
2021/09/15 02:45:33;;;;;;;16.45;12.48;;;20.90;99.90;;;;;;5072486;28;20043;-75
2021/09/15 02:47:59;;;;;;;20.30;13.02;;;20.80;99.90;;;;;;5069984;28;20376;-75
2021/09/15 02:50:24;;;;;;;18.48;14.55;;;20.80;99.90;;;;;;5071710;28;20197;-75
2021/09/15 02:52:51;;;;;;;15.15;12.07;;;20.80;99.90;;;;;;5077665;28;20072;-75
2021/09/15 02:55:16;;;;;;;15.60;11.15;;;20.80;99.90;;;;;;5066715;28;20029;-75
2021/09/15 02:57:42;;;;;;;16.35;12.23;;;20.80;99.90;;;;;;5076771;28;20074;-76
2021/09/15 03:00:08;;;;;;;18.50;11.32;;;20.70;99.90;;;;;;5077898;28;20103;-76
2021/09/15 03:02:34;;;;;;;16.33;12.73;;;20.80;99.90;;;;;;5074668;28;20057;-75
2021/09/15 03:04:59;;;;;;;16.13;12.32;;;20.80;99.90;;;;;;5074402;28;20106;-75
2021/09/15 03:07:25;;;;;;;16.60;12.95;;;20.80;99.90;;;;;;5073657;28;20036;-75
2021/09/15 03:09:51;;;;;;;13.38;11.32;;;20.80;99.90;;;;;;5073778;28;20044;-75
2021/09/15 03:12:16;;;;;;;17.88;13.05;;;20.70;99.90;;;;;;5065985;28;20100;-75
2021/09/15 03:14:43;;;;;;;14.82;12.40;;;20.80;99.90;;;;;;5072461;28;20838;-75
2021/09/15 03:17:08;;;;;;;16.80;12.65;;;20.80;99.90;;;;;;5072237;28;20052;-75
2021/09/15 03:19:34;;;;;;;11.98;10.77;;;20.80;99.90;;;;;;5069661;28;20113;-75
2021/09/15 03:22:00;;;;;;;18.98;12.38;;;20.80;99.90;;;;;;5076071;28;20110;-75
2021/09/15 03:24:25;;;;;;;15.77;11.18;;;20.70;99.90;;;;;;5076417;28;20475;-75
2021/09/15 03:26:51;;;;;;;15.68;12.23;;;20.70;99.90;;;;;;5077280;28;20029;-75
2021/09/15 03:29:17;;;;;;;14.77;12.05;;;20.70;99.90;;;;;;5081291;28;20473;-75
2021/09/15 03:31:42;;;;;;;16.35;12.23;;;20.80;99.90;;;;;;5073554;28;20033;-76
2021/09/15 03:34:08;;;;;;;13.40;10.98;;;20.80;99.90;;;;;;5068094;28;20472;-75
2021/09/15 03:36:34;;;;;;;16.17;12.45;;;20.80;99.90;;;;;;5069776;28;20024;-76
2021/09/15 03:39:00;;;;;;;18.40;12.98;;;20.80;99.90;;;;;;5075416;28;20031;-77
2021/09/15 03:41:26;;;;;;;18.98;13.15;;;20.80;99.90;;;;;;5074446;28;20033;-74
2021/09/15 03:43:51;;;;;;;23.15;15.57;;;20.80;99.90;;;;;;5073450;28;20114;-77
2021/09/15 03:46:17;;;;;;;22.20;13.13;;;20.70;99.90;;;;;;5075178;28;20468;-75
2021/09/15 03:48:43;;;;;;;29.33;17.80;;;20.70;99.90;;;;;;5074456;28;20020;-77
2021/09/15 03:51:09;;;;;;;25.08;16.30;;;20.80;99.90;;;;;;5072681;28;20431;-75
2021/09/15 03:53:35;;;;;;;27.67;18.50;;;20.70;99.90;;;;;;5064400;28;20043;-74
2021/09/15 03:56:01;;;;;;;21.92;15.30;;;20.80;99.90;;;;;;5071138;28;20032;-75
2021/09/15 03:58:26;;;;;;;19.75;14.35;;;20.80;99.90;;;;;;5079254;28;20032;-76
2021/09/15 04:00:52;;;;;;;23.50;17.38;;;20.80;99.90;;;;;;5077288;28;20024;-75
2021/09/15 04:03:18;;;;;;;37.10;15.90;;;20.80;99.90;;;;;;5078699;28;20028;-74
2021/09/15 04:05:44;;;;;;;27.63;17.40;;;20.80;99.90;;;;;;5077568;28;20052;-74
2021/09/15 04:08:09;;;;;;;23.48;16.75;;;20.80;99.90;;;;;;5072704;28;20039;-74
2021/09/15 04:10:35;;;;;;;44.15;23.75;;;20.80;99.90;;;;;;5075222;28;20051;-74
2021/09/15 04:13:00;;;;;;;33.90;20.98;;;20.70;99.90;;;;;;5073814;28;20021;-74
2021/09/15 04:15:26;;;;;;;35.85;21.85;;;20.70;99.90;;;;;;5074132;28;20106;-73
2021/09/15 04:17:52;;;;;;;35.08;23.27;;;20.70;99.90;;;;;;5076613;28;20034;-74
2021/09/15 04:20:17;;;;;;;28.95;18.05;;;20.80;99.90;;;;;;5077073;28;20534;-73
2021/09/15 04:22:44;;;;;;;27.35;15.63;;;20.80;99.90;;;;;;5078102;28;20408;-74
2021/09/15 04:33:23;;;;;;;45.97;25.35;;;20.80;99.90;;;;;;5077016;28;20600;-74
2021/09/15 04:35:48;;;;;;;40.53;24.50;;;20.80;99.90;;;;;;5076193;28;20132;-74
2021/09/15 04:38:14;;;;;;;35.47;23.92;;;20.90;99.90;;;;;;5076198;28;20538;-75
2021/09/15 04:40:40;;;;;;;32.30;22.27;;;20.90;99.90;;;;;;5075898;28;20036;-74
2021/09/15 04:43:05;;;;;;;53.92;28.83;;;20.90;99.90;;;;;;5070829;28;20020;-76
2021/09/15 04:45:31;;;;;;;30.02;21.60;;;20.90;99.90;;;;;;5078776;28;20405;-74
2021/09/15 04:47:57;;;;;;;36.58;20.77;;;20.90;99.90;;;;;;5077276;28;20117;-75
2021/09/15 04:50:22;;;;;;;44.75;22.67;;;20.90;99.90;;;;;;5068723;28;20064;-74
2021/09/15 04:52:48;;;;;;;28.83;18.45;;;20.80;99.90;;;;;;5078865;28;20035;-74
2021/09/15 04:55:14;;;;;;;33.40;19.55;;;20.80;99.90;;;;;;5073066;28;20401;-74
2021/09/15 04:57:39;;;;;;;34.17;20.63;;;20.80;99.90;;;;;;5076707;28;20019;-74
2021/09/15 05:00:05;;;;;;;26.75;18.27;;;20.80;99.90;;;;;;5075413;28;20379;-75
2021/09/15 05:02:31;;;;;;;48.88;26.67;;;20.80;99.90;;;;;;5073146;28;20078;-74
2021/09/15 05:04:57;;;;;;;31.73;20.17;;;20.80;99.90;;;;;;5074518;28;20435;-74
2021/09/15 05:07:22;;;;;;;32.63;20.42;;;20.90;99.90;;;;;;5076102;28;20029;-74
2021/09/15 05:09:48;;;;;;;30.15;18.48;;;20.80;99.90;;;;;;5077319;28;20032;-73
2021/09/15 05:12:14;;;;;;;32.20;17.80;;;20.80;99.90;;;;;;5074988;28;20395;-74
2021/09/15 05:14:39;;;;;;;37.70;22.05;;;20.70;99.90;;;;;;5076154;28;20037;-74
2021/09/15 05:17:05;;;;;;;32.72;19.48;;;20.80;99.90;;;;;;5074819;28;20074;-74
2021/09/15 05:19:30;;;;;;;40.90;22.40;;;20.80;99.90;;;;;;5075500;28;20078;-74
2021/09/15 05:21:56;;;;;;;28.38;17.90;;;20.80;99.90;;;;;;5075469;28;20024;-74
2021/09/15 05:24:22;;;;;;;30.65;19.13;;;20.80;99.90;;;;;;5077499;28;20024;-74
2021/09/15 05:26:47;;;;;;;34.53;21.45;;;20.80;99.90;;;;;;5071058;28;20028;-74
2021/09/15 05:29:13;;;;;;;29.95;20.40;;;20.80;99.90;;;;;;5077212;28;20445;-75
2021/09/15 05:31:38;;;;;;;30.88;20.38;;;20.80;99.90;;;;;;5073806;28;20073;-75
2021/09/15 05:34:04;;;;;;;138.43;41.88;;;20.80;99.90;;;;;;5076710;28;20025;-74
2021/09/15 05:36:30;;;;;;;29.02;20.83;;;20.70;99.90;;;;;;5069482;28;20046;-75
2021/09/15 05:38:55;;;;;;;28.63;20.25;;;20.70;99.90;;;;;;5077882;28;20036;-74
2021/09/15 05:41:21;;;;;;;44.85;25.92;;;20.70;99.90;;;;;;5075577;28;20024;-74
2021/09/15 05:43:46;;;;;;;41.63;24.52;;;20.80;99.90;;;;;;5071268;28;20035;-75
2021/09/15 05:46:12;;;;;;;37.22;24.30;;;20.80;99.90;;;;;;5074491;28;20028;-74
2021/09/15 05:48:38;;;;;;;39.50;22.75;;;20.80;99.90;;;;;;5076168;28;20024;-76
2021/09/15 05:51:04;;;;;;;30.13;19.55;;;20.80;99.90;;;;;;5073718;28;20063;-74
2021/09/15 05:53:30;;;;;;;47.63;25.85;;;20.80;99.90;;;;;;5070710;28;20042;-74
2021/09/15 05:55:55;;;;;;;25.35;19.27;;;20.80;99.90;;;;;;5072078;28;20745;-72
2021/09/15 05:58:21;;;;;;;29.80;20.92;;;20.90;99.90;;;;;;5079496;28;20020;-74
2021/09/15 06:00:46;;;;;;;37.65;23.70;;;20.90;99.90;;;;;;5068479;28;20036;-74
2021/09/15 06:03:12;;;;;;;34.40;25.02;;;20.80;99.90;;;;;;5063728;28;20057;-75
2021/09/15 06:05:38;;;;;;;39.30;25.17;;;20.80;99.90;;;;;;5072042;28;20029;-75
2021/09/15 06:08:04;;;;;;;32.35;23.50;;;20.90;99.90;;;;;;5077179;28;20075;-74
2021/09/15 06:10:30;;;;;;;34.47;24.58;;;20.90;99.90;;;;;;5066223;28;20146;-75
2021/09/15 06:12:55;;;;;;;31.45;22.27;;;20.90;99.90;;;;;;5077988;28;20579;-76
2021/09/15 06:15:21;;;;;;;33.35;25.15;;;20.90;99.90;;;;;;5073610;28;20048;-75
2021/09/15 06:17:47;;;;;;;39.30;25.65;;;20.90;99.90;;;;;;5077787;28;20024;-76
2021/09/15 06:20:13;;;;;;;30.80;21.60;;;20.90;99.90;;;;;;5071437;28;21144;-79
2021/09/15 06:22:39;;;;;;;43.40;28.67;;;20.90;99.90;;;;;;5077333;28;20111;-77
2021/09/15 06:25:05;;;;;;;41.10;28.60;;;20.90;99.90;;;;;;5071571;28;20452;-77
2021/09/15 06:27:31;;;;;;;34.70;23.65;;;20.90;99.90;;;;;;5073912;28;20111;-78
2021/09/15 06:29:57;;;;;;;41.08;28.70;;;20.90;99.90;;;;;;5072610;28;20124;-78
2021/09/15 06:32:25;;;;;;;38.05;27.10;;;20.90;99.90;;;;;;5069867;28;20043;-78
2021/09/15 06:34:51;;;;;;;42.33;29.83;;;21.00;99.90;;;;;;5077103;28;20115;-78
2021/09/15 06:37:16;;;;;;;34.53;25.25;;;21.00;99.90;;;;;;5070945;28;20096;-77
2021/09/15 06:39:42;;;;;;;46.75;29.38;;;21.00;99.90;;;;;;5079730;28;20097;-75
2021/09/15 06:42:08;;;;;;;35.67;24.92;;;20.90;99.90;;;;;;5069053;28;20024;-78
2021/09/15 06:44:34;;;;;;;69.18;38.15;;;21.00;99.90;;;;;;5070771;28;20477;-75
2021/09/15 06:47:00;;;;;;;41.10;27.73;;;20.90;99.90;;;;;;5074920;28;20020;-77
2021/09/15 06:49:26;;;;;;;34.70;26.08;;;21.00;99.90;;;;;;5052216;28;20519;-74
2021/09/15 06:51:51;;;;;;;39.88;28.83;;;21.00;99.90;;;;;;5061496;28;20074;-79
2021/09/15 06:54:17;;;;;;;42.38;29.85;;;21.00;99.90;;;;;;5073408;28;20016;-78
2021/09/15 06:56:45;;;;;;;34.47;27.80;;;21.10;99.90;;;;;;5076775;28;20036;-79
2021/09/15 06:59:10;;;;;;;36.33;27.40;;;21.10;99.90;;;;;;5067534;28;20040;-74
2021/09/15 07:01:36;;;;;;;36.58;26.30;;;21.10;99.90;;;;;;5076278;28;20161;-75
2021/09/15 07:04:01;;;;;;;42.08;29.48;;;21.10;99.90;;;;;;5083480;28;20024;-75
2021/09/15 07:06:27;;;;;;;46.05;30.50;;;21.10;99.90;;;;;;5070916;28;20103;-74
2021/09/15 07:08:53;;;;;;;42.22;29.42;;;21.10;99.90;;;;;;5080733;28;20042;-74
2021/09/15 07:11:20;;;;;;;41.92;28.70;;;21.10;99.90;;;;;;5076190;28;20024;-75
2021/09/15 07:13:45;;;;;;;37.38;27.27;;;21.10;99.90;;;;;;5081177;28;20076;-75
2021/09/15 07:16:11;;;;;;;48.15;32.17;;;21.20;99.90;;;;;;5076299;28;20103;-76
2021/09/15 07:18:36;;;;;;;38.20;27.80;;;21.20;99.90;;;;;;5076864;28;20035;-76
2021/09/15 07:21:02;;;;;;;45.53;30.25;;;21.30;99.90;;;;;;5081463;28;20491;-75
2021/09/15 07:23:28;;;;;;;44.33;28.63;;;21.20;99.90;;;;;;5070744;28;20885;-77
2021/09/15 07:25:54;;;;;;;33.20;24.92;;;21.20;99.90;;;;;;5068727;28;20032;-76
2021/09/15 07:28:19;;;;;;;32.97;24.25;;;21.30;99.90;;;;;;5079778;28;20468;-75
2021/09/15 07:30:45;;;;;;;37.97;27.92;;;21.20;99.90;;;;;;5071618;28;20408;-75
2021/09/15 07:33:11;;;;;;;38.70;27.08;;;21.30;99.90;;;;;;5074042;28;20028;-75
2021/09/15 07:35:37;;;;;;;42.15;27.35;;;21.20;99.90;;;;;;5072238;28;20240;-75
2021/09/15 07:38:02;;;;;;;37.95;24.35;;;21.20;99.90;;;;;;5077619;28;20028;-76
2021/09/15 07:40:28;;;;;;;36.35;25.55;;;21.20;99.90;;;;;;5077653;28;20060;-75
2021/09/15 07:42:54;;;;;;;39.17;26.50;;;21.20;99.90;;;;;;5078096;28;20009;-74
2021/09/15 07:45:19;;;;;;;35.22;27.25;;;21.20;99.90;;;;;;5067938;28;20112;-74
2021/09/15 07:47:45;;;;;;;42.45;27.48;;;21.20;99.90;;;;;;5074853;28;20070;-76
2021/09/15 07:50:11;;;;;;;36.25;27.55;;;21.20;99.90;;;;;;5060278;28;20048;-77
2021/09/15 07:52:37;;;;;;;33.95;25.75;;;21.30;99.90;;;;;;5057580;28;20455;-75
2021/09/15 07:55:04;;;;;;;39.90;26.73;;;21.30;99.90;;;;;;5070590;28;20037;-76
2021/09/15 07:57:30;;;;;;;38.53;27.25;;;21.40;99.90;;;;;;5072471;28;20032;-75
2021/09/15 07:59:56;;;;;;;37.63;26.88;;;21.40;99.90;;;;;;5072117;28;20020;-75
2021/09/15 08:02:21;;;;;;;35.97;26.30;;;21.50;99.90;;;;;;5068943;28;20027;-75
2021/09/15 08:04:47;;;;;;;37.08;26.38;;;21.50;99.90;;;;;;5067079;28;20025;-77
2021/09/15 08:07:13;;;;;;;34.65;24.80;;;21.60;99.90;;;;;;5065585;28;20100;-79
2021/09/15 08:09:39;;;;;;;46.00;30.33;;;21.60;99.90;;;;;;5062842;28;20025;-78
2021/09/15 08:12:05;;;;;;;42.58;28.20;;;21.60;99.90;;;;;;5060254;28;20032;-78
2021/09/15 08:14:31;;;;;;;43.53;30.45;;;21.70;99.90;;;;;;5064392;28;20092;-78
2021/09/15 08:16:57;;;;;;;46.30;30.23;;;21.70;99.90;;;;;;5060026;28;20103;-76
2021/09/15 08:19:23;;;;;;;64.38;38.67;;;21.80;99.90;;;;;;5064351;28;20050;-76
2021/09/15 08:21:49;;;;;;;61.70;36.42;;;21.80;99.90;;;;;;5065773;28;20028;-76
2021/09/15 08:24:15;;;;;;;64.03;35.97;;;21.90;99.90;;;;;;5064130;28;20017;-77
2021/09/15 08:26:41;;;;;;;69.25;40.95;;;22.00;99.90;;;;;;5066671;28;20036;-76
2021/09/15 08:29:07;;;;;;;68.32;39.90;;;22.00;99.90;;;;;;5068167;28;20032;-77
2021/09/15 08:31:32;;;;;;;67.03;39.38;;;22.00;99.90;;;;;;5068576;28;20103;-77
2021/09/15 08:33:58;;;;;;;70.00;41.53;;;22.00;99.90;;;;;;5062928;28;20119;-76
2021/09/15 08:36:24;;;;;;;72.72;40.75;;;22.10;99.90;;;;;;5066484;28;20051;-77
2021/09/15 08:38:50;;;;;;;84.28;47.08;;;22.10;99.90;;;;;;5070027;28;20033;-77
2021/09/15 08:41:16;;;;;;;76.95;45.28;;;22.10;99.90;;;;;;5070646;28;20063;-74
2021/09/15 08:43:43;;;;;;;74.32;42.58;;;22.20;99.90;;;;;;5072259;28;20020;-75
2021/09/15 08:46:11;;;;;;;78.63;43.03;;;22.30;99.90;;;;;;5075469;28;20021;-75
2021/09/15 08:48:40;;;;;;;83.97;48.30;;;22.30;99.90;;;;;;5066772;28;20035;-74
2021/09/15 08:51:13;;;;;;;81.47;46.28;;;22.30;99.90;;;;;;5059812;28;20531;-75
2021/09/15 08:53:40;;;;;;;77.57;47.05;;;22.30;99.90;;;;;;5069708;28;20016;-75
2021/09/15 08:56:06;;;;;;;85.80;49.35;;;22.30;99.90;;;;;;5070936;28;20048;-74
2021/09/15 08:58:31;;;;;;;83.07;49.53;;;22.30;99.90;;;;;;5071982;28;20428;-75
2021/09/15 09:01:07;;;;;;;84.38;50.42;;;22.30;99.90;;;;;;5075140;28;20110;-74
2021/09/15 09:03:37;;;;;;;88.43;51.40;;;22.40;99.90;;;;;;5074189;28;20464;-75
2021/09/15 09:06:14;;;;;;;95.15;52.05;;;22.40;99.90;;;;;;5074905;28;20024;-76
2021/09/15 09:08:44;;;;;;;85.28;50.67;;;22.40;99.90;;;;;;5067700;28;20040;-77
2021/09/15 09:11:14;;;;;;;98.50;54.47;;;22.40;99.90;;;;;;5073211;28;20032;-76
2021/09/15 09:14:07;;;;;;;98.47;54.08;;;22.40;99.90;;;;;;5061059;28;20009;-75
2021/09/15 09:16:48;;;;;;;86.18;51.10;;;22.40;99.90;;;;;;5062849;28;20052;-77
2021/09/15 09:19:17;;;;;;;80.28;49.08;;;22.40;99.90;;;;;;5068081;28;20051;-77
2021/09/15 09:21:48;;;;;;;87.10;52.35;;;22.50;99.90;;;;;;5067377;28;20031;-77
2021/09/15 09:24:17;;;;;;;78.93;47.10;;;22.40;99.90;;;;;;5065875;28;20409;-77
2021/09/15 09:27:03;;;;;;;72.18;46.38;;;22.30;99.90;;;;;;5069450;28;20396;-77
2021/09/15 09:29:36;;;;;;;70.90;47.20;;;22.30;99.90;;;;;;5073381;28;20068;-77
2021/09/15 09:32:02;;;;;;;80.10;50.28;;;22.20;99.90;;;;;;5064274;28;20032;-77
2021/09/15 09:34:40;;;;;;;83.20;51.33;;;22.20;99.90;;;;;;5073441;28;20024;-78
2021/09/15 09:37:18;;;;;;;85.82;52.40;;;22.20;99.90;;;;;;5067271;28;20082;-77
2021/09/15 09:39:46;;;;;;;75.10;50.08;;;22.20;99.90;;;;;;5061224;28;20017;-77
2021/09/15 09:42:23;;;;;;;86.10;56.85;;;22.20;99.90;;;;;;5069262;28;20528;-78
2021/09/15 09:45:04;;;;;;;86.85;54.65;;;22.20;99.90;;;;;;5068592;28;20535;-77
2021/09/15 09:47:30;;;;;;;86.40;55.65;;;22.10;99.90;;;;;;5068898;28;20025;-74
2021/09/15 09:50:10;;;;;;;84.38;52.67;;;22.10;99.90;;;;;;5065914;28;20033;-76
2021/09/15 09:52:52;;;;;;;89.25;55.03;;;22.10;99.90;;;;;;5067101;28;20078;-76
2021/09/15 09:55:19;;;;;;;99.45;60.03;;;22.10;99.90;;;;;;5068432;28;20024;-77
2021/09/15 09:57:49;;;;;;;96.68;57.80;;;22.10;99.90;;;;;;5076963;28;20058;-77
2021/09/15 10:00:16;;;;;;;62.25;43.92;;;22.20;99.90;;;;;;5071036;28;20021;-76
2021/09/15 10:02:42;;;;;;;65.70;42.80;;;22.10;99.90;;;;;;5080183;28;20496;-77
2021/09/15 10:05:08;;;;;;;61.30;42.00;;;22.10;99.90;;;;;;5067562;28;20019;-77
2021/09/15 10:07:37;;;;;;;62.47;42.30;;;22.10;99.90;;;;;;5065240;28;20055;-76
2021/09/15 10:10:04;;;;;;;70.07;43.47;;;22.10;99.90;;;;;;5060229;28;20124;-76
2021/09/15 10:12:30;;;;;;;59.03;40.55;;;22.10;99.90;;;;;;5063059;28;20032;-77
2021/09/15 10:14:59;;;;;;;56.30;39.78;;;22.00;99.90;;;;;;5074409;28;20024;-75
2021/09/15 10:17:30;;;;;;;66.00;46.83;;;21.90;99.90;;;;;;5068756;28;20027;-77
2021/09/15 10:19:57;;;;;;;60.90;42.17;;;21.90;99.90;;;;;;5067570;28;20035;-77
2021/09/15 10:22:31;;;;;;;63.17;43.53;;;22.00;99.90;;;;;;5071839;28;20024;-77
2021/09/15 10:25:07;;;;;;;63.13;45.30;;;21.90;99.90;;;;;;5071678;28;20067;-76
2021/09/15 10:27:56;;;;;;;60.55;43.22;;;21.90;99.90;;;;;;5079817;28;20053;-75
2021/09/15 10:30:35;;;;;;;59.03;41.20;;;21.90;99.90;;;;;;5072927;28;20397;-75
2021/09/15 10:33:00;;;;;;;54.35;40.97;;;21.80;99.90;;;;;;5074711;28;20028;-75
2021/09/15 10:35:45;;;;;;;58.95;41.70;;;21.80;99.90;;;;;;5075485;28;20041;-77
2021/09/15 10:38:11;;;;;;;63.22;41.35;;;21.80;99.90;;;;;;5077784;28;20024;-76
2021/09/15 10:40:38;;;;;;;59.08;43.72;;;21.90;99.90;;;;;;5075977;28;20078;-76
2021/09/15 10:43:24;;;;;;;67.90;41.67;;;21.90;99.90;;;;;;5079046;28;20036;-77
2021/09/15 10:46:20;;;;;;;62.17;41.25;;;21.90;99.90;;;;;;5066053;28;20024;-76
2021/09/15 10:49:06;;;;;;;62.08;43.90;;;22.00;99.90;;;;;;5063802;28;20028;-74
2021/09/15 10:51:31;;;;;;;66.68;46.58;;;22.00;99.90;;;;;;5068727;28;20652;-77
2021/09/15 10:53:57;;;;;;;58.35;36.78;;;22.00;99.90;;;;;;5074835;28;20024;-77
2021/09/15 10:56:36;;;;;;;47.90;33.28;;;22.10;99.90;;;;;;5076079;28;20107;-76
2021/09/15 10:59:01;;;;;;;46.17;33.05;;;22.00;99.90;;;;;;5070903;28;20028;-77
2021/09/15 11:01:39;;;;;;;44.85;31.10;;;22.00;99.90;;;;;;5072318;28;20377;-77
2021/09/15 11:04:04;;;;;;;49.80;32.65;;;22.00;99.90;;;;;;5071488;28;20096;-77
2021/09/15 11:06:35;;;;;;;43.72;31.52;;;22.00;99.90;;;;;;5078448;28;20153;-76
2021/09/15 11:09:01;;;;;;;48.33;30.67;;;22.10;99.90;;;;;;5073619;28;20056;-75
2021/09/15 11:11:27;;;;;;;43.72;28.27;;;22.20;99.90;;;;;;5064474;28;20052;-76
2021/09/15 11:14:11;;;;;;;41.85;29.77;;;22.10;99.90;;;;;;5049148;28;20443;-76
2021/09/15 11:16:38;;;;;;;39.70;30.10;;;22.10;99.90;;;;;;5062072;28;20032;-75
2021/09/15 11:19:30;;;;;;;39.55;28.38;;;22.10;99.90;;;;;;5068375;28;20025;-76
2021/09/15 11:21:57;;;;;;;42.08;30.50;;;22.10;99.90;;;;;;5068753;28;20028;-76
2021/09/15 11:24:25;;;;;;;41.17;30.80;;;22.00;99.90;;;;;;5069814;28;20013;-77
2021/09/15 11:26:59;;;;;;;46.40;31.60;;;22.00;99.90;;;;;;5072656;28;20465;-76
2021/09/15 11:29:50;;;;;;;42.50;30.92;;;22.00;99.90;;;;;;5076181;28;20436;-76
2021/09/15 11:32:17;;;;;;;43.63;31.55;;;21.90;99.90;;;;;;5066599;28;20025;-76
2021/09/15 11:34:46;;;;;;;42.47;31.60;;;22.00;99.90;;;;;;5076385;28;20035;-75
2021/09/15 11:37:29;;;;;;;49.13;33.58;;;22.00;99.90;;;;;;5072234;28;20024;-77
2021/09/15 11:39:57;;;;;;;39.92;31.27;;;21.90;99.90;;;;;;5067515;28;20116;-77
2021/09/15 11:42:30;;;;;;;45.40;33.60;;;21.90;99.90;;;;;;5067482;28;20206;-76
2021/09/15 11:45:08;;;;;;;38.20;30.90;;;21.80;99.90;;;;;;5071717;28;20031;-76
2021/09/15 11:47:34;;;;;;;40.95;30.23;;;22.00;99.90;;;;;;5068251;28;20028;-76
2021/09/15 11:50:15;;;;;;;31.35;24.45;;;22.00;99.90;;;;;;5069874;28;20028;-76
2021/09/15 11:52:43;;;;;;;25.42;21.73;;;22.10;99.90;;;;;;5070814;28;20063;-76
2021/09/15 11:55:11;;;;;;;25.98;22.25;;;21.90;99.90;;;;;;5068247;28;20025;-76
2021/09/15 11:57:51;;;;;;;25.45;20.50;;;21.80;99.90;;;;;;5066607;28;20035;-76
2021/09/15 12:00:17;;;;;;;23.65;20.70;;;21.90;99.90;;;;;;5076846;28;20035;-75
2021/09/15 12:02:45;;;;;;;26.63;22.33;;;21.80;99.90;;;;;;5073968;28;20017;-76
2021/09/15 12:05:11;;;;;;;22.08;19.48;;;22.00;99.90;;;;;;5071393;28;20060;-76
2021/09/15 12:07:40;;;;;;;26.15;20.20;;;22.20;99.90;;;;;;5075145;28;20086;-76
2021/09/15 12:10:07;;;;;;;22.98;19.55;;;22.40;99.90;;;;;;5072470;28;20074;-76
2021/09/15 12:12:37;;;;;;;22.65;19.00;;;22.50;99.90;;;;;;5074845;28;20111;-76
2021/09/15 12:15:06;;;;;;;20.23;18.23;;;22.70;99.90;;;;;;5067920;28;20477;-76
2021/09/15 12:17:32;;;;;;;20.63;18.13;;;22.60;99.90;;;;;;5073810;28;20025;-79
2021/09/15 12:19:57;;;;;;;17.70;15.85;;;22.60;99.90;;;;;;5067722;28;20024;-76
2021/09/15 12:22:29;;;;;;;17.23;14.65;;;22.60;99.90;;;;;;5071083;28;20481;-76
2021/09/15 12:25:00;;;;;;;19.27;17.40;;;22.70;99.90;;;;;;5063736;28;20075;-75
2021/09/15 12:27:27;;;;;;;20.83;18.70;;;22.60;99.90;;;;;;5063564;28;20026;-76
2021/09/15 12:30:08;;;;;;;20.50;18.30;;;22.70;99.90;;;;;;5057483;28;20217;-76
2021/09/15 12:32:38;;;;;;;20.55;17.83;;;22.70;99.90;;;;;;5040253;28;20025;-74
2021/09/15 12:35:24;;;;;;;18.80;16.88;;;22.70;99.90;;;;;;5066504;28;20021;-76
2021/09/15 12:38:03;;;;;;;20.55;18.58;;;22.60;99.90;;;;;;5071100;28;20165;-75
2021/09/15 12:40:30;;;;;;;17.13;14.88;;;22.60;99.90;;;;;;5069937;28;20103;-76